Monday, November 24, 2014
08:06 UTC
  |  Log In   |  Register Free
Airport Search:

Southwest Georgia Regional Airport
(KABY)

FAA data valid effective November 13, 2014 - January 08, 2015 (unless otherwise noted).

 
 
 
 
 
 
 
 
 
 
 
 
 
 

Current Aviation Weather for Southwest Georgia Regional Airport (KABY)

The most recent METAR observation for KABY was updated at: 0709
METAR Summary (Translated METAR)
KABY
240653Z 20007KT 10SM BKN022 BKN029 OVC035 19/18 A2983 RMK AO2 SLP100 T01890178 PWINO $
KMGR
240655Z AUTO 19007KT 10SM OVC005 18/18 A2983 RMK AO2
(33.7 nm SE from KABY)
KACJ
240655Z AUTO 23005KT 7SM -DZ OVC007 18/18 A2982 RMK AO2
(34.5 nm NE from KABY)
TAF Summary (Translated TAF)
KABY
240533Z 2406/2506 21007KT 6SM SHRA BR BKN007 OVC030 TEMPO 2410/2413 BKN003 FM241600 24010KT P6SM BKN025 FM241900 27018KT P6SM SCT030 BKN100
  Airport Weather Conditions for KABY

 Current Weather at ABY
66° F
Overcast
South winds at 8.1 mph
ABY NOAA Radar

Pressure: 29.83 in
Humidity: 93%
Wind: South at 8.1 MPH (7 KT)
Dew Point: 64.0°F
Visibility: 10.00 mi


Airport Weather Forecast for KABY

Translated METAR and TAF for KABY
Translated METAR for KABY (0801 UTC 24 November 2014)
found at http://aviationweather.gov/adds/metars/
 
METAR text: KABY 240753Z 22004KT 10SM SCT008 OVC022 19/18 A2983 RMK AO2 SLP098 T01890178 PWINO $
Conditions at: KABY (ALBANY , GA, US) observed 0753 UTC 24 November 2014
Temperature: 18.9°C (66°F)
Dewpoint: 17.8°C (64°F) [RH = 93%]
Pressure (altimeter): 29.83 inches Hg (1010.2 mb)
[Sea-level pressure: 1009.8 mb]
Winds: from the SW (220 degrees) at 5 MPH (4 knots; 2.1 m/s)
Visibility: 10 or more miles (16+ km)
Ceiling: 2200 feet AGL
Clouds: scattered clouds at 800 feet AGL
overcast cloud deck at 2200 feet AGL
Weather:
SOME DATA ABOVE MAY BE INACCURATE!!!
"$" is an indication the sensor requires maintenance
Translated TAF for KABY
Forecast for: KABY (ALBANY , GA, US)
TAF Text: KABY 240533Z 2406/2506 21007KT 6SM SHRA BR BKN007 OVC030
Forecast period: 0600 to 1600 UTC 24 November 2014
Forecast type: FROM: standard forecast or significant change
Winds: from the SSW (210 degrees) at 8 MPH (7 knots; 3.6 m/s)
Visibility: 6 miles (10 km)
Ceiling: 700 feet AGL
Clouds: broken clouds at 700 feet AGL
overcast cloud deck at 3000 feet AGL
Weather: SHRA BR  (rain showers, mist)
TAF Text: TEMPO 2410/2413 BKN003
Forecast period: 1000 to 1300 UTC 24 November 2014
Forecast type: TEMPORARY: The following changes expected for less than half the time period
Ceiling: 300 feet AGL
Clouds: broken clouds at 300 feet AGL
Weather: no significant weather forecast for this period
TAF Text: FM241600 24010KT P6SM BKN025
Forecast period: 1600 to 1900 UTC 24 November 2014
Forecast type: FROM: standard forecast or significant change
Winds: from the WSW (240 degrees) at 12 MPH (10 knots; 5.2 m/s)
Visibility: 6 or more miles (10+ km)
Ceiling: 2500 feet AGL
Clouds: broken clouds at 2500 feet AGL
Weather: no significant weather forecast for this period
TAF Text: FM241900 27018KT P6SM SCT030 BKN100
Forecast period: 1900 UTC 24 November 2014 to 0600 UTC 25 November 2014
Forecast type: FROM: standard forecast or significant change
Winds: from the W (270 degrees) at 21 MPH (18 knots; 9.4 m/s)
Visibility: 6 or more miles (10+ km)
Ceiling: 10000 feet AGL
Clouds: scattered clouds at 3000 feet AGL
broken clouds at 10000 feet AGL
Weather: no significant weather forecast for this period

Find All Airport Services Find A Hotel Find A Rental Car Find A Golf Course Find A Restaurant $100 Hamburger



FBO's on the Field
FBO Company Facility Photos Services Transportation Aviation Fuel Prices: Prices include tax
Catering Weather Repair Courtesy Rental Type 100LL JetA JetA+ MOGAS 8087
 
Eagles of America, Inc. - ABY

Currently rated 5 by 1 person
FS:Epic
Last Updated: Oct-16
Login to update fuel prices
SS:
Contact Eagles of America, Inc. - ABYMore FBO Information
 
Add another FBO Facility Photos Catering Weather Repair Courtesy Rental Type 100LL JetA JetA+ MOGAS 8087
Services Transportation Aviation Fuel Prices: Prices include tax


model-print
model-print
model-print
model-print